Last 6 Hours

AM-Roundhouse Btm 6950'

15 Minute Data | America/Los_Angeles
as of 2/24/24 2:42 AM PST
Date & Time Temp (°F) RH (%) Dew Pt (°F) Wet Bulb (°F) Wind Dir (°) Wind Spd (mph) Wind Gust (mph) WindChill (°F) Barometric Press (inHg) Latest Rain (In) New Snow (in) SnowDepth (in) Daily Rain (In) Daily Min Temp (°F) Daily Max Temp (°F)
2/24/24 - 0215 30.9 73 23.1 27.7 SSW | 198 2.3 4.8 30.9 30.14 0.00 0.0 76.6 0.00 29.1 32.8
2/24/24 - 0200 30.0 74 22.6 27.1 SSW | 193 1.6 5.4 24.4 30.14 0.00 0.0 76.7 0.00 29.1 32.8
2/24/24 - 0145 30.7 73 23.0 27.6 SW | 217 0.8 4.1 30.7 30.15 0.00 0.0 76.5 0.00 29.1 32.8
2/24/24 - 0130 32.7 71 24.3 29.2 SSW | 205 2.0 5.4 29.0 30.14 0.00 0.0 76.7 0.00 29.1 32.8
2/24/24 - 0115 31.5 71 23.1 28.1 SSW | 207 2.3 4.1 31.5 30.15 0.00 0.0 76.8 0.00 29.1 31.5
2/24/24 - 0100 30.2 72 22.4 27.1 SSW | 206 3.1 6.2 26.7 30.14 0.00 0.0 76.9 0.00 29.1 31.4
2/24/24 - 0045 29.2 75 22.1 26.4 SSW | 205 3.0 5.3 25.3 30.16 0.00 0.0 76.7 0.00 29.1 31.4
2/24/24 - 0030 29.8 74 22.5 26.9 SSW | 205 2.9 6.0 29.8 30.16 0.00 0.0 76.6 0.00 29.8 31.4
2/24/24 - 0015 31.2 73 23.6 28.1 SSW | 192 0.6 5.2 31.2 30.16 0.00 0.0 76.8 0.00 30.1 31.4
2/24/24 - 0000 31.2 74 24.0 28.2 S | 187 1.7 4.6 31.2 30.16 0.00 0.0 76.8 0.00 24.2 38.6
2/23/24 - 2345 30.7 75 23.8 27.9 SSW | 196 2.5 6.0 24.6 30.17 0.00 0.0 76.8 0.00 24.2 38.6
2/23/24 - 2330 29.0 79 23.3 26.7 SSW | 194 1.3 3.3 29.0 30.16 0.00 0.0 76.9 0.00 24.2 38.6
2/23/24 - 2315 29.4 75 22.4 26.6 SSW | 197 0.9 3.1 26.4 30.15 0.00 0.0 76.6 0.00 24.2 38.6
2/23/24 - 2300 29.4 77 23.1 26.9 SSW | 205 0.9 4.6 26.2 30.17 0.00 0.0 76.9 0.00 24.2 38.6
2/23/24 - 2245 29.4 77 23.1 26.8 SSW | 207 0.7 3.2 29.4 30.17 0.00 0.0 76.8 0.00 24.2 38.6
2/23/24 - 2230 29.2 75 22.1 26.4 SSW | 213 0.4 3.2 29.2 30.16 0.00 0.0 76.7 0.00 24.2 38.6
2/23/24 - 2215 31.0 75 23.9 28.1 SSW | 205 0.8 2.7 31.0 30.15 0.00 0.0 76.9 0.00 24.2 38.6
2/23/24 - 2200 30.4 78 24.4 28.0 SSW | 202 2.9 5.0 30.4 30.16 0.00 0.0 76.9 0.00 24.2 38.6
2/23/24 - 2145 30.4 78 24.3 27.9 SSW | 208 3.3 5.7 25.9 30.16 0.00 0.0 76.8 0.00 24.2 38.6
2/23/24 - 2130 31.1 78 25.1 28.6 SSW | 209 3.5 7.1 31.1 30.16 0.00 0.0 76.9 0.00 24.2 38.6
2/23/24 - 2115 32.5 80 26.9 30.1 SSW | 209 2.5 5.7 27.0 30.16 0.00 0.0 77.0 0.00 24.2 38.6
2/23/24 - 2100 32.7 79 27.0 30.3 SSW | 203 2.7 4.4 29.7 30.17 0.00 0.0 76.9 0.00 24.2 38.6
2/23/24 - 2045 32.3 80 26.7 29.9 SSW | 205 2.0 4.7 32.3 30.17 0.00 0.0 77.1 0.00 24.2 38.6
Max 32.7 80 27.0 30.3 - 3.5 7.1 32.3 30.17 0.00 0.0 77.1 0.00 30.1 38.6
Avg 30.6 75 23.8 27.9 - 1.9 4.8 28.8 30.16 0.00 - - - - -
Min 29.0 71 22.1 26.4 - 0.4 2.7 24.4 30.14 0.00 0.0 76.5 0.00 24.2 31.4
Total - - - - - - - - - 0.00 - - - - -